Time;durP1;ratioP1;P1;durP2;ratioP2;P2;SDS_P1;SDS_P2;PMS_P1;PMS_P2;Temp;Humidity;BMP_temperature;BMP_pressure;BME280_temperature;BME280_humidity;BME280_pressure;Samples;Min_cycle;Max_cycle;Signal;HPM_P1;HPM_P2
2022/08/21 00:01:27;;;;;;;10.07;4.97;;;;;;;17.82;64.67;99850.38;12229260;19;20006;-79
2022/08/21 00:05:31;;;;;;;7.90;5.00;;;;;;;17.75;64.98;99847.91;12205209;19;20376;-80
2022/08/21 00:09:33;;;;;;;8.43;4.93;;;;;;;17.67;65.40;99846.63;12224556;19;20023;-79
2022/08/21 00:13:35;;;;;;;7.68;4.28;;;;;;;17.62;65.55;99840.28;12204481;19;20028;-80
2022/08/21 00:17:37;;;;;;;10.70;5.47;;;;;;;17.58;65.63;99840.06;12227169;19;20519;-79
2022/08/21 00:21:39;;;;;;;10.52;4.70;;;;;;;17.56;66.13;99841.47;12226775;19;20580;-79
2022/08/21 00:25:45;;;;;;;7.68;4.70;;;;;;;17.52;66.58;99830.91;12207132;19;20007;-79
2022/08/21 00:29:47;;;;;;;8.60;4.80;;;;;;;17.51;66.73;99828.41;12228638;19;20005;-80
2022/08/21 00:33:48;;;;;;;8.77;5.30;;;;;;;17.53;66.58;99826.16;12236879;19;20028;-79
2022/08/21 00:37:50;;;;;;;9.57;4.50;;;;;;;17.54;66.46;99819.47;12218795;19;20011;-80
2022/08/21 00:41:51;;;;;;;7.18;4.40;;;;;;;17.57;66.28;99826.41;12237741;19;20518;-79
2022/08/21 00:45:53;;;;;;;10.15;4.88;;;;;;;17.59;66.77;99821.38;12236120;19;20027;-80
2022/08/21 00:49:56;;;;;;;9.18;4.75;;;;;;;17.60;66.50;99823.84;12215671;19;20006;-79
2022/08/21 00:54:00;;;;;;;9.33;5.10;;;;;;;17.59;66.58;99824.97;12234885;19;20010;-79
2022/08/21 00:58:07;;;;;;;8.95;4.63;;;;;;;17.58;66.77;99817.75;12236303;19;20487;-79
2022/08/21 01:02:10;;;;;;;10.75;4.70;;;;;;;17.56;66.66;99820.00;12215342;19;20009;-79
2022/08/21 01:06:12;;;;;;;9.20;4.50;;;;;;;17.51;66.81;99820.88;12232642;19;20099;-79
2022/08/21 01:10:14;;;;;;;8.48;4.70;;;;;;;17.49;67.21;99825.09;12234689;19;20014;-79
2022/08/21 01:14:25;;;;;;;7.38;4.53;;;;;;;17.46;67.19;99822.88;12212271;19;20051;-79
2022/08/21 01:18:27;;;;;;;11.70;4.85;;;;;;;17.44;67.55;99834.34;12244216;19;20003;-79
2022/08/21 01:22:29;;;;;;;7.85;4.43;;;;;;;17.42;67.77;99830.19;12237949;19;20014;-79
2022/08/21 01:26:34;;;;;;;9.45;4.47;;;;;;;17.39;67.68;99828.00;12211539;19;20010;-80
2022/08/21 01:30:37;;;;;;;10.75;4.30;;;;;;;17.35;67.77;99827.75;12234244;19;20010;-79
2022/08/21 01:34:42;;;;;;;;;;;;;;;17.31;68.28;99826.66;12208593;19;20015;-79
2022/08/21 01:38:44;;;;;;;10.55;4.78;;;;;;;17.27;68.14;99828.38;12231731;19;19911;-79
2022/08/21 01:42:46;;;;;;;11.02;4.82;;;;;;;17.26;68.43;99837.88;12227613;19;20011;-79
2022/08/21 01:46:48;;;;;;;10.13;4.50;;;;;;;17.22;68.25;99832.06;12207867;19;20487;-79
2022/08/21 01:50:50;;;;;;;10.15;4.55;;;;;;;17.19;68.87;99826.22;12229343;19;20017;-79
2022/08/21 01:54:57;;;;;;;9.68;4.55;;;;;;;17.19;69.23;99817.88;12228788;19;20020;-80
2022/08/21 01:58:58;;;;;;;11.05;5.15;;;;;;;17.16;69.39;99816.50;12208833;19;20074;-79
2022/08/21 02:03:00;;;;;;;8.10;4.28;;;;;;;17.14;69.20;99818.78;12231526;19;20007;-79
2022/08/21 02:07:03;;;;;;;9.65;4.95;;;;;;;17.11;69.06;99816.56;12227801;19;20075;-79
2022/08/21 02:11:08;;;;;;;8.95;4.63;;;;;;;17.08;69.72;99822.72;12208518;19;20038;-79
2022/08/21 02:15:10;;;;;;;11.63;4.93;;;;;;;17.04;69.41;99816.94;12228555;19;20361;-79
2022/08/21 02:19:14;;;;;;;8.45;4.55;;;;;;;17.03;69.79;99814.41;12248277;19;20490;-79
2022/08/21 02:23:16;;;;;;;7.43;4.70;;;;;;;16.98;70.13;99812.50;12241435;19;20437;-79
2022/08/21 02:27:22;;;;;;;8.10;4.07;;;;;;;16.95;70.34;99820.63;12250604;19;20018;-80
2022/08/21 02:31:27;;;;;;;8.45;4.18;;;;;;;16.92;70.45;99808.09;12234163;19;20018;-80
2022/08/21 02:35:29;;;;;;;10.52;5.30;;;;;;;16.88;70.91;99803.44;12208423;19;20068;-80
2022/08/21 02:39:30;;;;;;;8.98;4.55;;;;;;;16.83;70.94;99812.63;12231171;19;20106;-79
2022/08/21 02:43:32;;;;;;;12.32;5.00;;;;;;;16.80;70.95;99802.09;12231325;19;20011;-79
2022/08/21 02:47:34;;;;;;;8.90;4.60;;;;;;;16.75;71.16;99802.94;12208142;19;20399;-79
2022/08/21 02:51:35;;;;;;;9.23;4.47;;;;;;;16.74;71.68;99803.22;12236765;19;20006;-79
2022/08/21 02:55:38;;;;;;;7.50;4.05;;;;;;;16.72;72.02;99806.31;12204908;19;20115;-79
2022/08/21 02:59:40;;;;;;;12.15;4.85;;;;;;;16.71;72.09;99798.25;12230354;19;20338;-79
2022/08/21 03:03:44;;;;;;;11.93;4.43;;;;;;;16.68;72.21;99805.22;12229165;19;20038;-79
2022/08/21 03:07:47;;;;;;;14.13;4.53;;;;;;;16.65;72.40;99797.44;12206451;19;20011;-79
2022/08/21 03:11:51;;;;;;;10.25;5.00;;;;;;;16.62;72.57;99801.66;12226956;19;20395;-79
2022/08/21 03:15:52;;;;;;;13.63;5.05;;;;;;;16.58;72.84;99795.00;12227844;19;20019;-79
2022/08/21 03:19:54;;;;;;;7.80;4.50;;;;;;;16.55;72.72;99795.59;12203650;19;20003;-79
2022/08/21 03:23:55;;;;;;;10.07;4.25;;;;;;;16.53;72.74;99799.78;12224187;19;20031;-79
2022/08/21 03:27:58;;;;;;;9.75;5.10;;;;;;;16.50;73.01;99792.84;12227148;19;20003;-79
2022/08/21 03:32:00;;;;;;;;;;;;;;;16.47;73.24;99804.53;12205419;19;20014;-79
2022/08/21 03:36:06;;;;;;;11.10;4.97;;;;;;;16.45;72.89;99811.50;12224976;19;19911;-79
2022/08/21 03:40:09;;;;;;;9.80;4.70;;;;;;;16.43;73.13;99808.22;12225811;19;20062;-79
2022/08/21 03:44:11;;;;;;;14.68;4.57;;;;;;;16.38;73.58;99804.31;12204315;19;20507;-79
2022/08/21 03:48:13;;;;;;;9.20;4.72;;;;;;;16.36;73.55;99803.81;12226004;19;20070;-79
2022/08/21 03:52:16;;;;;;;8.83;5.00;;;;;;;16.35;73.72;99815.19;12225916;19;20018;-79
2022/08/21 03:56:18;;;;;;;;;;;;;;;16.34;74.10;99819.09;12201356;19;20044;-79
2022/08/21 04:00:22;;;;;;;9.63;4.75;;;;;;;16.31;73.93;99816.91;12224229;19;19914;-79
2022/08/21 04:04:28;;;;;;;10.70;5.03;;;;;;;16.28;74.47;99823.88;12221995;19;20015;-79
2022/08/21 04:08:30;;;;;;;9.60;4.82;;;;;;;16.27;74.73;99830.56;12212544;19;20689;-79
2022/08/21 04:12:33;;;;;;;11.98;4.57;;;;;;;16.24;74.83;99828.34;12236671;19;20616;-79
2022/08/21 04:16:35;;;;;;;9.85;5.40;;;;;;;16.20;75.02;99830.03;12218822;19;20014;-79
2022/08/21 04:20:40;;;;;;;9.88;5.25;;;;;;;16.20;75.19;99835.59;12235395;19;20466;-79
2022/08/21 04:24:50;;;;;;;11.80;5.32;;;;;;;16.22;75.18;99836.13;12229366;19;20035;-79
2022/08/21 04:28:52;;;;;;;9.77;5.35;;;;;;;16.21;75.53;99848.38;12222059;19;20007;-79
2022/08/21 04:32:54;;;;;;;11.68;4.93;;;;;;;16.22;75.48;99846.44;12233867;19;20100;-80
2022/08/21 04:36:56;;;;;;;8.80;5.68;;;;;;;16.22;75.67;99846.44;12231095;19;20027;-79
2022/08/21 04:40:58;;;;;;;7.47;5.18;;;;;;;16.24;75.68;99849.75;12212455;19;20018;-79
2022/08/21 04:45:00;;;;;;;11.32;4.82;;;;;;;16.24;75.60;99849.75;12230834;19;20020;-79
2022/08/21 04:49:02;;;;;;;8.10;5.23;;;;;;;16.25;75.73;99863.38;12232618;19;20027;-79
2022/08/21 04:53:08;;;;;;;13.10;5.10;;;;;;;16.27;75.76;99860.28;12210065;19;20014;-79
2022/08/21 04:57:10;;;;;;;8.02;4.65;;;;;;;16.30;75.58;99863.34;12231418;19;20066;-79
2022/08/21 05:01:17;;;;;;;10.85;5.25;;;;;;;16.33;75.51;99862.78;12232495;19;20027;-79
2022/08/21 05:05:20;;;;;;;11.77;5.15;;;;;;;16.34;75.64;99872.78;12210903;19;20018;-79
2022/08/21 05:09:23;;;;;;;9.97;4.77;;;;;;;16.36;75.60;99864.97;12231629;19;20067;-79
2022/08/21 05:13:25;;;;;;;13.20;5.25;;;;;;;16.39;75.67;99866.38;12230524;19;20534;-79
2022/08/21 05:17:26;;;;;;;9.32;5.30;;;;;;;16.39;76.33;99872.75;12208541;19;20003;-79
2022/08/21 05:21:28;;;;;;;10.27;5.00;;;;;;;16.43;76.30;99874.97;12230671;19;20065;-79
2022/08/21 05:25:29;;;;;;;10.52;4.63;;;;;;;16.47;76.33;99881.59;12228012;19;20074;-79
2022/08/21 05:29:31;;;;;;;9.98;4.93;;;;;;;16.51;76.36;99874.31;12209312;19;20011;-79
2022/08/21 05:33:33;;;;;;;10.55;4.90;;;;;;;16.56;76.31;99863.19;12228442;19;20038;-79
2022/08/21 05:37:36;;;;;;;8.05;5.20;;;;;;;16.63;76.54;99869.28;12206744;19;20002;-79
2022/08/21 05:41:38;;;;;;;7.30;4.45;;;;;;;16.73;76.25;99871.13;12227184;19;20056;-79
2022/08/21 05:45:40;;;;;;;8.93;4.90;;;;;;;16.78;76.30;99869.19;12224805;19;20015;-79
2022/08/21 05:49:44;;;;;;;12.07;5.00;;;;;;;16.84;76.18;99869.97;12207074;19;20049;-79
2022/08/21 05:53:47;;;;;;;6.93;4.30;;;;;;;16.93;76.30;99872.97;12226235;19;20066;-79
2022/08/21 05:57:49;;;;;;;8.90;4.80;;;;;;;16.96;76.33;99875.19;12228846;19;20880;-79
2022/08/21 06:01:52;;;;;;;8.73;4.53;;;;;;;17.01;75.96;99875.13;12213628;19;20027;-79
2022/08/21 06:05:55;;;;;;;;;;;;;;;17.08;76.07;99878.41;12228270;19;20035;-79
2022/08/21 06:09:57;;;;;;;7.10;4.07;;;;;;;17.16;75.62;99874.97;12230443;19;19935;-79
2022/08/21 06:13:58;;;;;;;9.55;4.85;;;;;;;17.24;75.25;99879.94;12205720;19;20814;-79
2022/08/21 06:18:00;;;;;;;12.82;4.57;;;;;;;17.35;75.61;99877.88;12227273;19;20011;-79
2022/08/21 06:22:02;;;;;;;11.95;4.72;;;;;;;17.48;75.31;99879.16;12225757;19;20409;-79
2022/08/21 06:26:06;;;;;;;14.10;4.83;;;;;;;17.62;74.63;99885.69;12201813;19;20107;-79
2022/08/21 06:30:09;;;;;;;10.60;4.60;;;;;;;17.79;73.53;99888.06;12222971;19;20007;-79
2022/08/21 06:34:11;;;;;;;7.63;4.03;;;;;;;17.97;73.04;99892.03;12223953;19;20010;-79
2022/08/21 06:38:12;;;;;;;11.02;4.63;;;;;;;18.11;73.14;99892.94;12203366;19;20114;-79
2022/08/21 06:42:15;;;;;;;7.38;3.63;;;;;;;18.26;72.33;99886.34;12224790;19;20070;-79
2022/08/21 06:46:18;;;;;;;13.65;5.07;;;;;;;18.42;71.24;99887.00;12226550;19;20038;-79
2022/08/21 06:50:19;;;;;;;8.93;3.80;;;;;;;18.63;69.98;99882.78;12204143;19;20031;-79
2022/08/21 06:54:25;;;;;;;11.02;4.32;;;;;;;18.83;68.89;99880.84;12223780;19;20015;-80
2022/08/21 06:58:30;;;;;;;10.77;4.63;;;;;;;19.02;67.62;99890.00;12224037;19;20031;-80
2022/08/21 07:02:33;;;;;;;9.63;5.18;;;;;;;19.30;66.85;99878.94;12202621;19;20003;-79
2022/08/21 07:06:34;;;;;;;9.80;4.53;;;;;;;19.58;66.05;99875.06;12221854;19;20055;-80
2022/08/21 07:10:37;;;;;;;8.63;4.28;;;;;;;19.81;65.41;99866.84;12202236;19;19998;-80
2022/08/21 07:14:42;;;;;;;11.27;5.35;;;;;;;20.03;64.38;99874.50;12220635;19;20045;-80
2022/08/21 07:18:44;;;;;;;11.73;4.95;;;;;;;20.26;64.11;99881.00;12222775;19;20069;-79
2022/08/21 07:22:46;;;;;;;9.88;5.20;;;;;;;20.55;63.19;99877.03;12201434;19;20019;-79
2022/08/21 07:26:47;;;;;;;12.88;5.32;;;;;;;20.82;62.66;99868.56;12219156;19;20014;-80
2022/08/21 07:30:55;;;;;;;10.87;5.10;;;;;;;21.10;61.90;99871.25;12224588;19;20029;-80
2022/08/21 07:34:57;;;;;;;10.70;5.05;;;;;;;21.34;61.28;99870.91;12202361;19;20342;-80
2022/08/21 07:38:59;;;;;;;9.35;5.07;;;;;;;21.61;60.38;99867.13;12230947;19;20074;-80
2022/08/21 07:43:00;;;;;;;10.63;5.18;;;;;;;21.93;60.04;99865.13;12225248;19;20012;-80
2022/08/21 07:47:02;;;;;;;12.48;5.55;;;;;;;22.18;58.90;99864.41;12199938;19;20113;-80
2022/08/21 07:51:13;;;;;;;12.93;5.88;;;;;;;22.33;59.27;99856.69;12225280;19;20520;-80
2022/08/21 07:55:18;;;;;;;10.15;6.28;;;;;;;22.55;58.88;99853.75;12221484;19;20010;-80
2022/08/21 07:59:20;;;;;;;11.20;5.47;;;;;;;22.95;57.85;99859.22;12201985;19;20023;-80
2022/08/21 08:03:22;;;;;;;12.45;5.30;;;;;;;23.24;57.14;99852.09;12229299;19;20018;-80
2022/08/21 08:07:29;;;;;;;10.85;6.20;;;;;;;23.23;56.53;99856.06;12266909;19;20011;-80
2022/08/21 08:11:31;;;;;;;11.90;6.63;;;;;;;23.34;56.60;99848.94;12239231;19;20014;-80
2022/08/21 08:15:33;;;;;;;10.38;6.07;;;;;;;23.65;56.24;99852.31;12252337;19;20006;-79
2022/08/21 08:19:38;;;;;;;10.48;5.35;;;;;;;23.99;54.54;99841.28;12214690;19;20035;-80
2022/08/21 08:23:40;;;;;;;9.90;6.20;;;;;;;24.13;53.65;99843.84;12226395;19;20027;-80
2022/08/21 08:27:42;;;;;;;11.38;6.10;;;;;;;24.34;53.51;99850.34;12225074;19;20483;-80
2022/08/21 08:31:44;;;;;;;10.63;5.40;;;;;;;24.58;52.98;99848.88;12204041;19;20027;-80
2022/08/21 08:35:48;;;;;;;12.07;5.90;;;;;;;24.77;52.06;99835.13;12224415;19;20011;-80
2022/08/21 08:39:49;;;;;;;11.68;5.95;;;;;;;25.05;51.87;99837.38;12224739;19;20023;-80
2022/08/21 08:43:58;;;;;;;11.13;6.70;;;;;;;25.28;50.20;99824.53;12202994;19;20015;-81
2022/08/21 08:48:07;;;;;;;9.82;5.80;;;;;;;25.27;50.39;99822.09;12256125;19;20011;-81
2022/08/21 08:52:28;;;;;;;11.07;6.22;;;;;;;25.20;49.44;99815.03;12268614;19;20030;-79
2022/08/21 08:56:33;;;;;;;9.95;5.93;;;;;;;25.06;49.60;99817.28;12217744;19;20007;-82
2022/08/21 09:00:37;;;;;;;9.30;5.78;;;;;;;24.47;49.93;99812.66;12239693;19;20002;-81
2022/08/21 09:04:39;;;;;;;9.05;5.10;;;;;;;24.23;50.84;99816.13;12211774;19;20019;-81
2022/08/21 09:09:14;;;;;;;8.73;5.10;;;;;;;24.22;50.72;99810.84;12237883;19;20529;-81
2022/08/21 09:13:34;;;;;;;8.15;5.32;;;;;;;24.35;50.43;99806.94;12242312;19;20010;-81
2022/08/21 09:17:55;;;;;;;8.18;4.22;;;;;;;24.47;49.98;99800.56;12210692;19;20046;-81
2022/08/21 09:22:03;;;;;;;11.00;5.50;;;;;;;24.60;49.34;99802.31;12233770;19;20013;-80
2022/08/21 09:26:11;;;;;;;9.85;5.18;;;;;;;25.05;48.66;99795.09;12209690;19;20033;-80
2022/08/21 09:30:14;;;;;;;8.98;4.65;;;;;;;25.88;46.19;99799.63;12233644;19;20011;-81
2022/08/21 09:34:26;;;;;;;10.40;4.13;;;;;;;25.75;45.21;99801.59;12232361;19;20027;-81
2022/08/21 09:38:36;;;;;;;8.30;4.40;;;;;;;25.33;45.57;99804.59;12215731;19;20015;-80
2022/08/21 09:42:38;;;;;;;8.15;4.68;;;;;;;24.94;46.25;99803.97;12234519;19;20006;-80
2022/08/21 09:46:50;;;;;;;7.05;4.63;;;;;;;24.84;47.10;99804.41;12207495;19;20044;-81
2022/08/21 09:50:53;;;;;;;13.23;4.80;;;;;;;25.42;45.44;99798.84;12234963;19;20007;-81
2022/08/21 09:54:55;;;;;;;10.23;4.55;;;;;;;26.12;43.71;99802.44;12228203;19;20007;-80
2022/08/21 09:58:57;;;;;;;9.60;4.07;;;;;;;26.79;42.66;99791.56;12212640;19;20027;-81
2022/08/21 10:03:13;;;;;;;8.33;3.93;;;;;;;26.75;41.08;99801.97;12231534;19;20016;-81
2022/08/21 10:07:15;;;;;;;8.73;3.55;;;;;;;26.42;41.13;99795.69;12234497;19;20023;-81
2022/08/21 10:11:32;;;;;;;8.83;4.20;;;;;;;26.91;40.49;99793.53;12210862;19;20024;-82
2022/08/21 10:16:05;;;;;;;8.52;3.78;;;;;;;27.36;39.44;99775.41;12233019;19;20704;-83
2022/08/21 10:20:17;;;;;;;10.18;3.70;;;;;;;27.84;38.96;99795.25;12213423;19;20006;-81
2022/08/21 10:24:43;;;;;;;7.50;3.05;;;;;;;27.91;36.21;99784.09;12231090;19;20018;-81
2022/08/21 10:28:58;;;;;;;8.15;3.65;;;;;;;27.26;37.85;99776.75;12210698;19;20014;-82
2022/08/21 10:33:28;;;;;;;6.85;3.30;;;;;;;27.24;37.88;99778.31;12230768;19;20027;-81
2022/08/21 10:37:42;;;;;;;7.50;3.28;;;;;;;27.46;36.92;99774.06;12233091;19;20479;-82
2022/08/21 10:42:08;;;;;;;5.10;2.78;;;;;;;27.79;35.62;99767.22;12209555;19;20010;-81
2022/08/21 10:46:29;;;;;;;9.38;3.42;;;;;;;28.05;34.66;99758.97;12230981;19;20404;-82
2022/08/21 10:50:41;;;;;;;6.65;3.33;;;;;;;28.12;34.37;99753.44;12210154;19;20018;-81
2022/08/21 10:54:59;;;;;;;6.80;3.33;;;;;;;28.30;34.72;99756.69;12228758;19;20015;-82
2022/08/21 10:59:11;;;;;;;10.05;3.50;;;;;;;28.47;34.27;99755.47;12207579;19;20029;-82
2022/08/21 11:03:20;;;;;;;9.57;3.35;;;;;;;28.34;34.67;99756.75;12228465;19;20010;-82
2022/08/21 11:07:53;;;;;;;7.88;3.60;;;;;;;27.52;35.56;99757.63;12226042;19;20010;-82
2022/08/21 11:12:34;;;;;;;6.07;3.10;;;;;;;26.90;36.80;99748.66;12204587;19;20010;-82
2022/08/21 11:16:48;;;;;;;9.50;3.28;;;;;;;27.01;36.39;99735.66;12205790;19;20116;-81
2022/08/21 11:21:04;;;;;;;6.07;3.17;;;;;;;27.72;35.68;99746.00;12226698;19;20020;-82
2022/08/21 11:25:27;;;;;;;4.85;3.50;;;;;;;27.91;35.71;99735.97;12226541;19;20003;-82
2022/08/21 11:29:40;;;;;;;7.22;3.30;;;;;;;28.34;34.66;99734.91;12206480;19;20010;-81
2022/08/21 11:33:45;;;;;;;5.40;3.20;;;;;;;28.78;33.72;99731.81;12225913;19;20017;-83
2022/08/21 11:38:13;;;;;;;7.50;3.42;;;;;;;28.88;32.57;99735.22;12205675;19;20006;-83
2022/08/21 11:42:36;;;;;;;8.18;3.50;;;;;;;29.23;32.06;99729.44;12228463;19;20417;-82
2022/08/21 11:46:52;;;;;;;6.13;3.28;;;;;;;29.53;31.89;99718.19;12204404;19;20044;-81
2022/08/21 11:50:55;;;;;;;9.65;3.70;;;;;;;29.92;30.93;99718.03;12227586;19;20010;-81
2022/08/21 11:55:36;;;;;;;9.77;3.45;;;;;;;30.25;31.00;99713.66;12225094;19;20017;-81
2022/08/21 11:59:45;;;;;;;7.07;3.55;;;;;;;30.73;29.79;99714.69;12205572;19;20467;-82
2022/08/21 12:03:57;;;;;;;9.68;3.13;;;;;;;30.51;30.01;99712.78;12227646;19;20007;-82
2022/08/21 12:08:03;;;;;;;6.72;3.47;;;;;;;31.30;29.00;99703.91;12203268;19;20078;-82
2022/08/21 12:12:25;;;;;;;8.60;3.55;;;;;;;31.99;27.98;99703.25;12227259;19;20356;-82
2022/08/21 12:16:36;;;;;;;4.72;3.10;;;;;;;32.40;27.41;99699.41;12226656;19;20010;-81
2022/08/21 12:20:43;;;;;;;4.65;3.38;;;;;;;33.04;27.21;99702.50;12203891;19;20474;-85
2022/08/21 12:25:05;;;;;;;6.18;3.58;;;;;;;33.42;26.09;99690.72;12229633;19;20029;-84
2022/08/21 12:29:13;;;;;;;5.75;3.63;;;;;;;33.99;26.17;99685.78;12222784;19;20014;-83
2022/08/21 12:33:27;;;;;;;6.93;3.90;;;;;;;34.19;25.32;99691.06;12244433;19;20006;-83
2022/08/21 12:37:39;;;;;;;7.10;4.13;;;;;;;34.53;24.95;99679.91;12236809;19;20024;-84
2022/08/21 12:41:49;;;;;;;7.82;3.50;;;;;;;34.69;24.44;99690.91;12219883;19;20010;-85
2022/08/21 12:45:52;;;;;;;5.90;3.72;;;;;;;35.04;23.78;99681.31;12240374;19;20010;-83
2022/08/21 12:50:07;;;;;;;5.90;3.40;;;;;;;35.42;23.76;99680.59;12218889;19;19999;-87
2022/08/21 12:54:08;;;;;;;7.03;3.05;;;;;;;35.89;22.83;99672.41;12236712;19;20039;-84
2022/08/21 12:58:22;;;;;;;6.28;3.22;;;;;;;36.10;22.21;99674.25;12235543;19;20006;-83
2022/08/21 13:02:28;;;;;;;5.82;3.20;;;;;;;35.79;22.60;99669.22;12215047;19;20017;-80
2022/08/21 13:06:40;;;;;;;7.40;3.22;;;;;;;35.49;22.40;99666.19;12236917;19;20022;-82
2022/08/21 13:10:44;;;;;;;7.55;3.80;;;;;;;35.60;22.51;99664.91;12217563;19;20010;-82
2022/08/21 13:14:48;;;;;;;7.85;3.15;;;;;;;36.64;21.94;99663.75;12239954;19;20023;-83
2022/08/21 13:18:56;;;;;;;6.47;2.90;;;;;;;37.61;21.00;99654.47;12239255;19;20501;-81
2022/08/21 13:22:59;;;;;;;5.20;3.20;;;;;;;38.17;20.16;99658.78;12217857;19;20011;-81
2022/08/21 13:27:02;;;;;;;6.18;3.20;;;;;;;37.99;20.22;99653.38;12238030;19;20529;-81
2022/08/21 13:31:09;;;;;;;5.68;2.83;;;;;;;38.83;19.75;99654.88;12238710;19;20015;-83
2022/08/21 13:35:14;;;;;;;5.38;3.03;;;;;;;39.16;19.18;99655.75;12217638;19;20010;-82
2022/08/21 13:39:18;;;;;;;5.70;2.85;;;;;;;39.07;18.94;99651.88;12240113;19;20014;-84
2022/08/21 13:43:27;;;;;;;5.20;2.90;;;;;;;38.90;18.64;99643.22;12235426;19;20023;-84
2022/08/21 13:47:29;;;;;;;6.93;3.10;;;;;;;38.66;19.12;99639.63;12211109;19;20125;-82
2022/08/21 13:51:32;;;;;;;6.78;3.13;;;;;;;37.63;19.68;99631.84;12246342;19;20026;-83
2022/08/21 13:55:39;;;;;;;7.10;3.30;;;;;;;37.01;20.23;99629.63;12240820;19;20010;-84
2022/08/21 13:59:41;;;;;;;7.65;3.13;;;;;;;36.24;21.01;99634.75;12247120;19;20435;-87
2022/08/21 14:03:46;;;;;;;7.45;2.90;;;;;;;35.43;21.66;99631.50;12239134;19;20085;-83
2022/08/21 14:07:52;;;;;;;6.70;3.60;;;;;;;33.73;22.71;99634.81;12213989;19;20050;-83
2022/08/21 14:11:56;;;;;;;9.57;3.50;;;;;;;33.39;23.42;99608.72;12240518;19;20010;-85
2022/08/21 14:15:59;;;;;;;6.20;3.08;;;;;;;33.34;23.10;99613.59;12238970;19;20014;-85
2022/08/21 14:20:03;;;;;;;9.43;3.00;;;;;;;32.86;23.16;99598.91;12219801;19;20006;-82
2022/08/21 14:24:14;;;;;;;7.05;2.78;;;;;;;32.26;23.30;99596.72;12230742;19;20007;-81
2022/08/21 14:28:26;;;;;;;4.97;2.75;;;;;;;31.61;24.18;99604.91;12234503;19;20014;-86
2022/08/21 14:32:39;;;;;;;6.63;2.90;;;;;;;31.57;24.19;99591.88;12208912;19;20022;-83
2022/08/21 14:36:47;;;;;;;8.35;2.85;;;;;;;31.80;24.04;99586.72;12234574;19;20006;-83
2022/08/21 14:40:52;;;;;;;8.48;2.90;;;;;;;31.90;23.76;99588.03;12211071;19;20018;-84
2022/08/21 14:44:58;;;;;;;7.05;2.83;;;;;;;31.79;23.94;99588.72;12231911;19;20010;-82
2022/08/21 14:48:59;;;;;;;7.50;2.40;;;;;;;31.47;24.19;99587.72;12231183;19;19998;-83
2022/08/21 14:53:03;;;;;;;7.22;2.40;;;;;;;31.30;23.99;99583.53;12214093;19;20009;-83
2022/08/21 14:57:12;;;;;;;5.35;2.50;;;;;;;31.53;24.45;99566.19;12228524;19;20086;-83
2022/08/21 15:01:16;;;;;;;8.27;2.80;;;;;;;31.85;23.93;99572.06;12228605;19;20007;-85
2022/08/21 15:05:19;;;;;;;6.50;2.63;;;;;;;31.27;24.01;99570.09;12208601;19;20003;-83
2022/08/21 15:09:33;;;;;;;6.15;2.40;;;;;;;30.87;24.41;99568.94;12225640;19;20016;-84
2022/08/21 15:13:35;;;;;;;4.57;2.45;;;;;;;30.29;25.27;99563.91;12202469;19;20365;-84
2022/08/21 15:17:37;;;;;;;5.95;2.40;;;;;;;29.95;25.42;99572.38;12226172;19;20015;-82
2022/08/21 15:21:40;;;;;;;6.63;2.47;;;;;;;29.83;25.54;99573.44;12224143;19;20012;-81
2022/08/21 15:25:44;;;;;;;4.95;2.22;;;;;;;29.64;25.55;99573.59;12204416;19;20090;-83
2022/08/21 15:29:45;;;;;;;5.07;2.58;;;;;;;29.47;25.58;99570.09;12225164;19;20007;-83
2022/08/21 15:33:47;;;;;;;4.75;2.00;;;;;;;29.37;25.99;99572.78;12221670;19;20018;-83
2022/08/21 15:37:49;;;;;;;5.03;2.20;;;;;;;29.32;26.04;99573.91;12203844;19;20416;-85
2022/08/21 15:41:50;;;;;;;4.53;2.05;;;;;;;29.18;26.15;99574.53;12224072;19;20074;-85
2022/08/21 15:45:52;;;;;;;5.82;2.60;;;;;;;29.15;25.86;99568.78;12228288;19;20023;-85
2022/08/21 15:49:53;;;;;;;5.47;2.30;;;;;;;29.16;26.11;99561.91;12203550;19;20009;-83
2022/08/21 15:53:55;;;;;;;7.18;2.35;;;;;;;29.03;26.55;99561.28;12220449;19;20163;-84
2022/08/21 15:57:57;;;;;;;5.32;2.25;;;;;;;28.83;26.75;99563.38;12223070;19;20015;-85
2022/08/21 16:02:03;;;;;;;4.15;2.70;;;;;;;28.77;27.11;99559.22;12205330;19;20006;-83
2022/08/21 16:06:05;;;;;;;5.07;2.10;;;;;;;28.77;26.86;99562.06;12239160;19;20030;-84
2022/08/21 16:10:07;;;;;;;4.18;2.60;;;;;;;28.72;27.26;99556.69;12238816;19;20010;-84
2022/08/21 16:14:11;;;;;;;;;;;;;;;28.78;27.57;99555.19;12213199;19;20471;-83
2022/08/21 16:18:12;;;;;;;5.43;1.90;;;;;;;29.45;26.85;99560.34;12240299;19;20000;-84
2022/08/21 16:22:14;;;;;;;5.47;2.13;;;;;;;29.61;26.48;99558.13;12238485;19;20043;-85
2022/08/21 16:26:16;;;;;;;4.38;2.38;;;;;;;29.40;27.06;99546.47;12211441;19;20011;-84
2022/08/21 16:30:20;;;;;;;7.05;2.53;;;;;;;29.06;27.01;99540.66;12247816;19;20010;-84
2022/08/21 16:34:21;;;;;;;6.07;2.40;;;;;;;28.86;27.28;99545.59;12238723;19;20011;-85
2022/08/21 16:38:23;;;;;;;5.05;2.13;;;;;;;28.75;27.08;99536.09;12216130;19;20018;-83
2022/08/21 16:42:25;;;;;;;8.02;2.35;;;;;;;28.60;27.44;99540.69;12235005;19;20468;-86
2022/08/21 16:46:31;;;;;;;5.50;2.40;;;;;;;28.42;27.86;99540.38;12234532;19;20002;-85
2022/08/21 16:50:33;;;;;;;6.07;2.33;;;;;;;28.29;27.87;99528.38;12211361;19;20070;-81
2022/08/21 16:54:34;;;;;;;7.10;2.33;;;;;;;28.20;27.95;99526.97;12237701;19;20006;-85
2022/08/21 16:58:39;;;;;;;5.63;2.93;;;;;;;28.10;28.38;99519.91;12212522;19;20276;-83
2022/08/21 17:02:48;;;;;;;6.95;2.25;;;;;;;28.04;28.57;99518.56;12231444;19;20031;-83
2022/08/21 17:06:51;;;;;;;5.07;2.50;;;;;;;27.92;28.35;99509.03;12230117;19;20058;-84
2022/08/21 17:10:53;;;;;;;6.90;2.88;;;;;;;27.71;28.89;99506.56;12213081;19;20023;-89
2022/08/21 17:15:00;;;;;;;4.60;2.15;;;;;;;27.55;28.79;99505.00;12230125;19;20092;-81
2022/08/21 17:19:02;;;;;;;5.22;2.42;;;;;;;27.35;29.14;99509.81;12227207;19;20360;-83
2022/08/21 17:23:03;;;;;;;5.90;2.87;;;;;;;27.15;29.43;99506.94;12207866;19;20011;-83
2022/08/21 17:27:06;;;;;;;6.33;3.37;;;;;;;26.92;30.04;99514.44;12227746;19;20090;-85
2022/08/21 17:31:09;;;;;;;8.20;3.67;;;;;;;26.72;30.71;99520.03;12232807;19;20331;-83
2022/08/21 17:35:12;;;;;;;4.70;2.92;;;;;;;26.46;30.76;99506.41;12213510;19;20494;-84
2022/08/21 17:39:15;;;;;;;5.00;2.50;;;;;;;26.18;31.75;99500.84;12236822;19;20048;-84
2022/08/21 17:43:26;;;;;;;;;;;;;;;25.91;31.69;99506.16;12238451;19;20010;-82
2022/08/21 17:47:28;;;;;;;6.78;3.42;;;;;;;25.70;31.91;99502.72;12218244;19;19936;-84
2022/08/21 17:51:30;;;;;;;7.47;3.27;;;;;;;25.46;32.76;99501.63;12230759;19;20027;-84
2022/08/21 17:55:34;;;;;;;6.72;3.08;;;;;;;25.23;33.19;99492.03;12222720;19;20010;-85
2022/08/21 17:59:35;;;;;;;12.27;5.40;;;;;;;24.99;33.90;99495.69;12231621;19;20006;-83
2022/08/21 18:03:37;;;;;;;11.02;4.47;;;;;;;24.80;33.96;99499.09;12230316;19;20223;-85
2022/08/21 18:07:40;;;;;;;8.10;4.00;;;;;;;24.62;34.46;99504.16;12205997;19;20010;-84
2022/08/21 18:11:42;;;;;;;9.02;4.32;;;;;;;24.42;35.58;99500.28;12229338;19;20252;-83
2022/08/21 18:15:48;;;;;;;6.97;3.08;;;;;;;24.23;35.59;99497.97;12228306;19;20101;-83
2022/08/21 18:19:50;;;;;;;6.60;3.20;;;;;;;24.08;35.79;99507.91;12208556;19;20507;-84
2022/08/21 18:23:54;;;;;;;5.63;2.85;;;;;;;23.90;36.21;99517.69;12226818;19;20018;-85
2022/08/21 18:27:56;;;;;;;8.85;3.67;;;;;;;23.75;36.62;99507.91;12225746;19;20475;-85
2022/08/21 18:31:57;;;;;;;13.25;7.32;;;;;;;23.62;37.05;99509.84;12205809;19;20027;-84
2022/08/21 18:35:59;;;;;;;13.80;6.15;;;;;;;23.48;37.04;99514.91;12224465;19;20094;-82
2022/08/21 18:40:07;;;;;;;13.23;5.95;;;;;;;23.36;37.65;99523.28;12224836;19;20003;-84
2022/08/21 18:44:11;;;;;;;7.15;3.50;;;;;;;23.25;37.87;99524.84;12203216;19;20505;-82
2022/08/21 18:48:16;;;;;;;9.15;3.08;;;;;;;23.14;37.92;99528.06;12229967;19;20515;-84
2022/08/21 18:52:18;;;;;;;7.18;3.00;;;;;;;23.04;38.30;99533.25;12225665;19;20042;-83
2022/08/21 18:56:21;;;;;;;6.90;2.72;;;;;;;22.92;38.16;99526.34;12204263;19;20015;-84
2022/08/21 19:00:32;;;;;;;7.15;3.45;;;;;;;22.84;38.40;99532.81;12226905;19;20014;-85